Time;durP1;ratioP1;P1;durP2;ratioP2;P2;SDS_P1;SDS_P2;PMS_P1;PMS_P2;Temp;Humidity;BMP_temperature;BMP_pressure;BME280_temperature;BME280_humidity;BME280_pressure;Samples;Min_cycle;Max_cycle;Signal;HPM_P1;HPM_P2
2022/07/07 00:02:07;;;;;;;11.35;9.65;;;16.30;99.90;;;;;;5048333;28;20480;-30
2022/07/07 00:04:33;;;;;;;11.73;9.20;;;16.30;99.90;;;;;;5047570;28;20041;-29
2022/07/07 00:06:59;;;;;;;10.75;9.65;;;16.30;99.90;;;;;;5044734;28;20132;-29
2022/07/07 00:09:25;;;;;;;12.48;10.43;;;16.40;99.90;;;;;;5048135;28;20627;-29
2022/07/07 00:11:51;;;;;;;12.07;10.73;;;16.40;99.90;;;;;;5030917;28;20045;-28
2022/07/07 00:14:17;;;;;;;13.43;10.20;;;16.40;99.90;;;;;;5049860;28;20029;-29
2022/07/07 00:16:42;;;;;;;10.68;9.63;;;16.50;99.90;;;;;;5049102;28;20029;-29
2022/07/07 00:19:08;;;;;;;14.63;11.45;;;16.50;99.90;;;;;;5050148;28;20102;-29
2022/07/07 00:21:34;;;;;;;12.52;10.75;;;16.50;99.90;;;;;;5049676;28;20037;-29
2022/07/07 00:24:00;;;;;;;13.98;11.40;;;16.60;99.90;;;;;;5050479;28;20083;-29
2022/07/07 00:26:26;;;;;;;14.60;11.60;;;16.60;99.90;;;;;;5052033;28;20377;-28
2022/07/07 00:28:51;;;;;;;14.05;10.98;;;16.60;99.90;;;;;;5052825;28;20128;-28
2022/07/07 00:31:17;;;;;;;16.27;12.25;;;16.60;99.90;;;;;;5053163;28;20041;-28
2022/07/07 00:33:44;;;;;;;16.50;12.65;;;16.60;99.90;;;;;;5052728;28;20040;-29
2022/07/07 00:36:09;;;;;;;14.18;11.90;;;16.60;99.90;;;;;;5053774;28;20044;-29
2022/07/07 00:38:35;;;;;;;13.55;11.75;;;16.60;99.90;;;;;;5051740;28;20072;-29
2022/07/07 00:41:01;;;;;;;13.80;11.52;;;16.60;99.90;;;;;;5051865;28;20041;-29
2022/07/07 00:43:34;;;;;;;14.60;12.10;;;16.60;99.90;;;;;;5045925;28;20114;-29
2022/07/07 00:46:02;;;;;;;13.25;11.93;;;16.60;99.90;;;;;;5052805;28;20068;-29
2022/07/07 00:48:30;;;;;;;14.48;11.93;;;16.70;99.90;;;;;;5050047;28;20064;-29
2022/07/07 00:50:56;;;;;;;14.40;11.98;;;16.70;99.90;;;;;;5050723;28;20049;-29
2022/07/07 00:53:22;;;;;;;14.63;12.70;;;16.70;99.90;;;;;;5053075;28;20087;-29
2022/07/07 00:55:49;;;;;;;14.77;11.88;;;16.70;99.90;;;;;;5052993;28;20047;-29
2022/07/07 00:58:14;;;;;;;17.02;12.05;;;16.70;99.90;;;;;;5043336;28;20041;-29
2022/07/07 01:00:41;;;;;;;16.15;13.82;;;16.70;99.90;;;;;;5053464;28;20037;-29
2022/07/07 01:03:09;;;;;;;14.82;13.27;;;16.70;99.90;;;;;;5053078;28;20041;-29
2022/07/07 01:05:36;;;;;;;15.55;13.55;;;16.70;99.90;;;;;;5052868;28;20507;-29
2022/07/07 01:08:04;;;;;;;15.75;14.13;;;16.70;99.90;;;;;;5052454;28;20040;-30
2022/07/07 01:10:30;;;;;;;16.83;13.63;;;16.70;99.90;;;;;;5048029;28;20044;-29
2022/07/07 01:13:00;;;;;;;18.70;14.43;;;16.70;99.90;;;;;;5053270;28;20044;-30
2022/07/07 01:15:26;;;;;;;16.05;13.52;;;16.70;99.90;;;;;;5052265;28;20125;-32
2022/07/07 01:17:54;;;;;;;16.73;13.90;;;16.70;99.90;;;;;;5043876;28;20470;-28
2022/07/07 01:20:21;;;;;;;14.13;12.63;;;16.70;99.90;;;;;;5034676;28;20040;-28
2022/07/07 01:22:50;;;;;;;14.55;13.00;;;16.60;99.90;;;;;;5052976;28;20041;-29
2022/07/07 01:25:15;;;;;;;15.27;12.48;;;16.60;99.90;;;;;;5052235;28;20087;-28
2022/07/07 01:27:42;;;;;;;17.08;12.88;;;16.60;99.90;;;;;;5049346;28;20037;-28
2022/07/07 01:30:08;;;;;;;14.32;12.63;;;16.60;99.90;;;;;;5051400;28;20041;-30
2022/07/07 01:32:33;;;;;;;14.93;13.30;;;16.60;99.90;;;;;;5052894;28;20056;-28
2022/07/07 01:34:59;;;;;;;17.95;13.00;;;16.60;99.90;;;;;;5034331;28;20044;-28
2022/07/07 01:37:25;;;;;;;16.92;13.13;;;16.60;99.90;;;;;;5049977;28;20040;-29
2022/07/07 01:39:52;;;;;;;16.40;13.38;;;16.60;99.90;;;;;;5049791;28;20048;-28
2022/07/07 01:42:17;;;;;;;15.95;13.88;;;16.60;99.90;;;;;;5050209;28;20049;-28
2022/07/07 01:44:44;;;;;;;18.60;14.00;;;16.60;99.90;;;;;;5048675;28;20101;-29
2022/07/07 01:47:11;;;;;;;16.05;13.73;;;16.60;99.90;;;;;;5052808;28;20882;-28
2022/07/07 01:49:38;;;;;;;18.98;14.77;;;16.60;99.90;;;;;;5073685;23;20128;-28
2022/07/07 01:52:05;;;;;;;12.63;11.25;;;16.60;99.90;;;;;;5067035;28;20102;-28
2022/07/07 01:54:33;;;;;;;13.95;12.23;;;16.60;99.90;;;;;;5063570;28;20061;-28
2022/07/07 01:56:59;;;;;;;13.00;10.18;;;16.50;99.90;;;;;;5051431;28;20128;-28
2022/07/07 01:59:25;;;;;;;9.65;8.65;;;16.50;99.90;;;;;;5052210;28;20134;-28
2022/07/07 02:01:51;;;;;;;10.73;9.63;;;16.50;99.90;;;;;;5052030;28;20040;-28
2022/07/07 02:04:17;;;;;;;9.32;8.43;;;16.50;99.90;;;;;;5039189;28;20511;-28
2022/07/07 02:06:43;;;;;;;9.75;7.13;;;16.50;99.90;;;;;;5052435;28;20037;-28
2022/07/07 02:09:09;;;;;;;10.40;7.18;;;16.40;99.90;;;;;;5048604;28;20044;-28
2022/07/07 02:11:37;;;;;;;9.13;7.65;;;16.40;99.90;;;;;;5051646;28;20423;-28
2022/07/07 02:14:04;;;;;;;7.93;7.13;;;16.40;99.90;;;;;;5041904;28;20072;-28
2022/07/07 02:16:31;;;;;;;8.00;6.70;;;16.40;99.90;;;;;;5051987;28;20043;-28
2022/07/07 02:18:59;;;;;;;10.30;7.35;;;16.30;99.90;;;;;;5051878;28;20037;-28
2022/07/07 02:21:25;;;;;;;7.68;6.90;;;16.30;99.90;;;;;;5052035;28;20123;-28
2022/07/07 02:23:53;;;;;;;7.88;7.18;;;16.30;99.90;;;;;;5051355;28;20068;-28
2022/07/07 02:26:19;;;;;;;8.73;6.53;;;16.30;99.90;;;;;;5038709;28;20072;-26
2022/07/07 02:28:45;;;;;;;7.88;6.40;;;16.30;99.90;;;;;;5047383;28;20153;-28
2022/07/07 02:31:12;;;;;;;7.40;6.63;;;16.30;99.90;;;;;;5039179;28;20161;-28
2022/07/07 02:33:38;;;;;;;7.03;6.38;;;16.20;99.90;;;;;;5048903;28;20201;-28
2022/07/07 02:36:05;;;;;;;6.40;5.80;;;16.20;99.90;;;;;;5050400;28;20163;-28
2022/07/07 02:38:31;;;;;;;5.75;5.25;;;16.30;99.90;;;;;;5044824;28;20037;-28
2022/07/07 02:40:57;;;;;;;5.50;5.00;;;16.30;99.90;;;;;;5041019;28;20065;-28
2022/07/07 02:43:23;;;;;;;6.35;4.65;;;16.20;99.90;;;;;;5051478;28;20076;-28
2022/07/07 02:45:50;;;;;;;6.13;4.13;;;16.20;99.90;;;;;;5050641;28;20492;-28
2022/07/07 02:48:19;;;;;;;4.22;3.83;;;16.20;99.90;;;;;;5041055;28;20041;-28
2022/07/07 02:50:45;;;;;;;4.82;4.20;;;16.20;99.90;;;;;;5043115;28;20126;-28
2022/07/07 02:53:12;;;;;;;4.90;4.40;;;16.20;99.90;;;;;;5052329;28;20444;-25
2022/07/07 02:55:39;;;;;;;4.15;3.78;;;16.20;99.90;;;;;;5050245;28;20502;-28
2022/07/07 02:58:07;;;;;;;4.45;4.07;;;16.20;99.90;;;;;;5049724;28;20029;-29
2022/07/07 03:00:33;;;;;;;4.03;3.72;;;16.20;99.90;;;;;;5043810;28;20073;-28
2022/07/07 03:03:04;;;;;;;4.90;4.50;;;16.10;99.90;;;;;;5048868;28;20032;-29
2022/07/07 03:05:31;;;;;;;5.18;4.68;;;16.10;99.90;;;;;;5026406;28;20057;-28
2022/07/07 03:07:57;;;;;;;6.05;4.65;;;16.10;99.90;;;;;;5048460;28;20036;-28
2022/07/07 03:10:23;;;;;;;5.97;4.40;;;16.10;99.90;;;;;;5050940;28;20037;-28
2022/07/07 03:12:49;;;;;;;5.07;4.65;;;16.10;99.90;;;;;;5038464;28;20404;-28
2022/07/07 03:15:15;;;;;;;5.50;5.00;;;16.10;99.90;;;;;;5049372;28;20043;-28
2022/07/07 03:17:44;;;;;;;5.20;4.70;;;16.10;99.90;;;;;;5050420;28;20112;-28
2022/07/07 03:20:15;;;;;;;5.63;5.13;;;16.10;99.90;;;;;;5049133;28;20099;-28
2022/07/07 03:22:42;;;;;;;5.85;5.32;;;16.20;99.90;;;;;;5050733;28;20068;-28
2022/07/07 03:25:09;;;;;;;8.43;5.47;;;16.10;99.90;;;;;;5048075;28;20033;-28
2022/07/07 03:27:35;;;;;;;7.55;5.35;;;16.20;99.90;;;;;;5049703;28;20041;-28
2022/07/07 03:30:05;;;;;;;7.30;6.50;;;16.20;99.90;;;;;;5038097;28;20030;-33
2022/07/07 03:32:31;;;;;;;7.93;5.60;;;16.20;99.90;;;;;;5050354;28;20056;-28
2022/07/07 03:34:57;;;;;;;9.35;6.35;;;16.20;99.90;;;;;;5042784;28;20044;-28
2022/07/07 03:37:24;;;;;;;6.55;5.07;;;16.20;99.90;;;;;;5040400;28;20041;-28
2022/07/07 03:39:50;;;;;;;9.82;4.88;;;16.20;99.90;;;;;;5037390;28;20049;-28
2022/07/07 03:42:15;;;;;;;7.05;4.80;;;16.20;99.90;;;;;;5038180;28;20037;-28
2022/07/07 03:44:41;;;;;;;8.05;5.43;;;16.20;99.90;;;;;;5046050;28;20040;-28
2022/07/07 03:47:07;;;;;;;6.60;4.70;;;16.20;99.90;;;;;;5049518;28;20047;-28
2022/07/07 03:49:32;;;;;;;6.55;4.53;;;16.20;99.90;;;;;;5049897;28;20080;-28
2022/07/07 03:51:58;;;;;;;6.68;4.55;;;16.20;99.90;;;;;;5049892;28;20029;-28
2022/07/07 03:54:24;;;;;;;6.68;4.50;;;16.20;99.90;;;;;;5050231;28;20479;-28
2022/07/07 03:56:50;;;;;;;5.75;4.60;;;16.20;99.90;;;;;;5049649;28;20069;-28
2022/07/07 03:59:16;;;;;;;7.60;4.20;;;16.20;99.90;;;;;;5050854;28;20032;-28
2022/07/07 04:01:44;;;;;;;8.25;4.70;;;16.20;99.90;;;;;;5054034;28;20037;-28
2022/07/07 04:04:11;;;;;;;8.45;4.95;;;16.20;99.90;;;;;;5053469;28;20392;-28
2022/07/07 04:06:37;;;;;;;5.28;3.97;;;16.20;99.90;;;;;;5053951;28;20090;-28
2022/07/07 04:09:03;;;;;;;7.72;4.63;;;16.20;99.90;;;;;;5054455;28;20116;-28
2022/07/07 04:11:28;;;;;;;8.40;3.97;;;16.20;99.90;;;;;;5053795;28;20044;-28
2022/07/07 04:13:54;;;;;;;5.47;3.35;;;16.20;99.90;;;;;;5051242;28;20428;-28
2022/07/07 04:16:20;;;;;;;5.70;3.22;;;16.20;99.90;;;;;;5052165;28;20527;-28
2022/07/07 04:18:45;;;;;;;4.30;3.08;;;16.10;99.90;;;;;;5049575;28;20028;-28
2022/07/07 04:21:11;;;;;;;7.82;3.50;;;16.10;99.90;;;;;;5053175;28;20039;-28
2022/07/07 04:23:37;;;;;;;5.72;2.85;;;16.10;99.90;;;;;;5050093;28;20045;-29
2022/07/07 04:26:02;;;;;;;6.72;3.17;;;16.10;99.90;;;;;;5045233;28;20033;-29
2022/07/07 04:28:31;;;;;;;8.32;3.00;;;16.10;99.90;;;;;;5047217;28;20056;-28
2022/07/07 04:30:57;;;;;;;5.68;3.08;;;16.10;99.90;;;;;;5047408;28;20068;-28
2022/07/07 04:33:23;;;;;;;7.00;2.88;;;16.00;99.90;;;;;;5041946;28;20088;-28
2022/07/07 04:35:49;;;;;;;5.55;2.50;;;16.00;99.90;;;;;;5037564;28;20048;-28
2022/07/07 04:38:30;;;;;;;5.38;2.47;;;16.10;99.90;;;;;;5060471;23;20056;-86
2022/07/07 04:41:21;;;;;;;;;;;;;;;;;;;;;
2022/07/07 04:43:47;;;;;;;7.72;2.50;;;16.10;99.90;;;;;;4999841;28;20511;-86
2022/07/07 04:46:12;;;;;;;3.38;2.28;;;16.00;99.90;;;;;;4988841;28;20042;-85
2022/07/07 04:48:39;;;;;;;5.82;2.00;;;16.00;99.90;;;;;;5003855;28;20050;-87
2022/07/07 04:51:07;;;;;;;6.45;1.80;;;16.00;99.90;;;;;;4977551;28;20075;-85
2022/07/07 04:53:39;;;;;;;1.83;1.45;;;15.90;99.90;;;;;;4973610;28;20109;-84
2022/07/07 04:56:05;;;;;;;5.13;1.50;;;15.90;99.90;;;;;;4973147;28;20515;-86
2022/07/07 04:58:31;;;;;;;4.10;1.45;;;15.80;99.90;;;;;;4969196;28;20035;-85
2022/07/07 05:00:57;;;;;;;7.32;1.40;;;15.80;99.90;;;;;;4969944;28;20047;-86
2022/07/07 05:03:22;;;;;;;3.30;1.73;;;15.80;99.90;;;;;;4971458;28;20100;-85
2022/07/07 05:05:51;;;;;;;6.63;1.50;;;15.80;99.90;;;;;;4967204;28;20038;-86
2022/07/07 05:08:17;;;;;;;6.13;1.63;;;15.80;99.90;;;;;;4968541;28;20035;-85
2022/07/07 05:10:42;;;;;;;3.97;1.73;;;15.80;99.90;;;;;;4958423;28;20042;-85
2022/07/07 05:13:10;;;;;;;9.10;1.75;;;15.80;99.90;;;;;;4972431;28;20042;-86
2022/07/07 05:15:36;;;;;;;7.22;1.90;;;15.80;99.90;;;;;;4970657;28;20042;-87
2022/07/07 05:18:02;;;;;;;5.95;1.42;;;15.90;99.90;;;;;;4971863;28;20174;-85
2022/07/07 05:20:27;;;;;;;4.70;1.98;;;15.90;99.90;;;;;;4993881;28;20069;-88
2022/07/07 05:22:54;;;;;;;6.15;1.30;;;15.90;99.90;;;;;;4995032;28;20046;-86
2022/07/07 05:25:19;;;;;;;4.82;1.05;;;15.90;99.90;;;;;;4998101;28;20038;-87
2022/07/07 05:27:45;;;;;;;3.38;1.20;;;15.80;99.90;;;;;;4998231;28;20026;-84
2022/07/07 05:30:12;;;;;;;5.18;1.30;;;15.80;99.90;;;;;;4975074;28;20042;-85
2022/07/07 05:32:38;;;;;;;3.53;1.33;;;15.90;99.90;;;;;;4955759;28;20041;-85
2022/07/07 05:35:04;;;;;;;2.95;1.10;;;15.90;99.90;;;;;;4972873;28;20042;-85
2022/07/07 05:37:30;;;;;;;2.17;1.00;;;15.90;99.90;;;;;;4973331;28;20050;-85
2022/07/07 05:39:56;;;;;;;2.47;1.17;;;15.90;99.90;;;;;;4953460;28;20043;-85
2022/07/07 05:42:21;;;;;;;3.42;1.00;;;15.90;99.90;;;;;;4972962;28;20109;-85
2022/07/07 05:44:47;;;;;;;3.47;1.10;;;16.00;99.90;;;;;;4971447;28;20039;-86
2022/07/07 05:47:13;;;;;;;4.50;1.10;;;16.10;99.90;;;;;;4975461;28;20038;-85
2022/07/07 05:49:39;;;;;;;3.45;1.10;;;16.10;99.90;;;;;;4975810;28;20118;-84
2022/07/07 05:52:11;;;;;;;4.18;1.38;;;16.10;99.90;;;;;;4973482;28;20038;-84
2022/07/07 05:54:39;;;;;;;3.95;1.27;;;16.20;99.90;;;;;;4953112;29;20039;-85
2022/07/07 05:57:06;;;;;;;5.88;1.73;;;16.30;99.90;;;;;;4971682;28;20049;-83
2022/07/07 05:59:32;;;;;;;6.38;1.40;;;16.40;99.90;;;;;;4956258;28;20042;-84
2022/07/07 06:01:58;;;;;;;4.95;1.45;;;16.50;99.90;;;;;;4972393;28;20551;-84
2022/07/07 06:04:25;;;;;;;6.03;1.75;;;16.60;99.90;;;;;;4984618;28;20591;-85
2022/07/07 06:06:50;;;;;;;5.78;1.40;;;16.70;99.90;;;;;;4971910;28;20046;-84
2022/07/07 06:09:16;;;;;;;7.07;1.10;;;16.80;99.90;;;;;;4984595;28;20043;-85
2022/07/07 06:11:41;;;;;;;3.58;1.30;;;16.80;99.90;;;;;;4969042;28;20043;-85
2022/07/07 06:14:07;;;;;;;11.18;1.55;;;16.80;99.90;;;;;;4972005;28;20070;-86
2022/07/07 06:16:38;;;;;;;3.92;1.20;;;16.80;99.90;;;;;;4969281;28;20518;-84
2022/07/07 06:19:08;;;;;;;5.53;1.50;;;16.70;99.90;;;;;;4972089;28;20046;-86
2022/07/07 06:21:35;;;;;;;6.43;1.52;;;16.70;99.90;;;;;;4970962;28;20043;-85
2022/07/07 06:24:01;;;;;;;7.28;1.60;;;16.70;99.90;;;;;;4955454;28;20070;-86
2022/07/07 06:26:26;;;;;;;5.55;1.60;;;16.70;99.90;;;;;;4983084;28;20078;-86
2022/07/07 06:28:53;;;;;;;6.45;1.73;;;16.60;99.90;;;;;;4997549;28;20030;-87
2022/07/07 06:31:21;;;;;;;5.07;1.40;;;16.50;99.90;;;;;;4970988;28;20049;-87
2022/07/07 06:33:47;;;;;;;7.10;2.10;;;16.60;99.90;;;;;;4965783;28;20585;-85
2022/07/07 06:36:13;;;;;;;7.82;1.77;;;16.60;99.90;;;;;;4955573;28;20205;-85
2022/07/07 06:38:39;;;;;;;4.30;1.83;;;16.60;99.90;;;;;;4961568;28;20046;-86
2022/07/07 06:41:04;;;;;;;6.55;2.13;;;16.60;99.90;;;;;;4951023;28;20503;-85
2022/07/07 06:43:30;;;;;;;4.90;1.60;;;16.60;99.90;;;;;;4983650;28;20043;-84
2022/07/07 06:45:56;;;;;;;4.47;1.80;;;16.70;99.90;;;;;;4952140;28;20038;-85
2022/07/07 06:48:22;;;;;;;6.13;1.70;;;16.90;99.90;;;;;;4983015;28;20051;-85
2022/07/07 06:50:50;;;;;;;6.03;1.90;;;17.00;99.90;;;;;;4951012;28;20043;-85
2022/07/07 06:53:16;;;;;;;7.28;1.73;;;17.20;99.90;;;;;;4966509;28;20046;-86
2022/07/07 06:55:42;;;;;;;6.72;1.58;;;17.40;99.90;;;;;;4969790;28;20455;-86
2022/07/07 06:58:08;;;;;;;5.38;1.60;;;17.50;99.90;;;;;;4969447;28;20057;-86
2022/07/07 07:00:34;;;;;;;4.40;1.65;;;17.70;99.90;;;;;;4970879;28;20046;-86
2022/07/07 07:03:00;;;;;;;4.78;1.48;;;17.80;99.90;;;;;;4969850;28;20046;-86
2022/07/07 07:05:26;;;;;;;6.85;2.03;;;17.80;99.90;;;;;;4982849;28;20043;-85
2022/07/07 07:07:52;;;;;;;6.70;1.98;;;17.90;99.90;;;;;;4950189;28;20586;-86
2022/07/07 07:10:21;;;;;;;5.03;1.70;;;17.90;99.90;;;;;;4963657;28;20133;-87
2022/07/07 07:12:48;;;;;;;5.85;2.08;;;17.90;99.90;;;;;;4983023;28;20101;-87
2022/07/07 07:15:14;;;;;;;5.47;1.88;;;17.80;99.90;;;;;;4963147;28;20035;-87
2022/07/07 07:17:39;;;;;;;5.25;1.38;;;17.90;99.90;;;;;;4964538;28;20073;-86
2022/07/07 07:20:06;;;;;;;3.83;1.70;;;17.80;99.90;;;;;;4975478;28;20097;-86
2022/07/07 07:22:36;;;;;;;6.80;1.40;;;17.70;99.90;;;;;;4952866;28;20038;-85
2022/07/07 07:25:02;;;;;;;6.38;2.00;;;17.60;99.90;;;;;;4977362;28;20031;-87
2022/07/07 07:27:28;;;;;;;3.83;1.00;;;17.50;99.90;;;;;;4948436;28;20561;-87
2022/07/07 07:29:54;;;;;;;4.75;1.27;;;17.40;99.90;;;;;;4965694;28;20034;-86
2022/07/07 07:32:20;;;;;;;5.93;1.33;;;17.50;99.90;;;;;;4953244;28;20043;-85
2022/07/07 07:34:45;;;;;;;5.97;1.23;;;17.60;99.90;;;;;;4950933;28;20034;-85
2022/07/07 07:37:11;;;;;;;5.50;1.00;;;17.90;99.90;;;;;;4950929;28;20039;-85
2022/07/07 07:39:36;;;;;;;4.45;0.80;;;17.90;99.90;;;;;;4966942;28;20470;-86
2022/07/07 07:42:02;;;;;;;2.10;0.80;;;18.00;99.90;;;;;;4951614;28;20070;-86
2022/07/07 07:47:15;;;;;;;3.17;1.23;;;18.10;99.90;;;;;;4977411;28;20125;-86
2022/07/07 07:49:50;;;;;;;1.48;0.80;;;18.20;99.90;;;;;;4976531;28;20508;-87
2022/07/07 07:52:15;;;;;;;3.58;1.10;;;18.30;99.90;;;;;;4960348;28;20043;-85
2022/07/07 07:54:55;;;;;;;2.97;1.13;;;18.40;99.90;;;;;;4976479;28;20069;-85
2022/07/07 07:57:56;;;;;;;3.10;0.95;;;18.60;99.90;;;;;;4959388;28;20125;-86
2022/07/07 08:00:25;;;;;;;3.53;0.75;;;18.90;99.90;;;;;;4995397;28;20062;-85
2022/07/07 08:02:51;;;;;;;3.30;0.90;;;18.80;99.90;;;;;;5005940;28;20546;-84
2022/07/07 08:05:25;;;;;;;5.85;0.93;;;18.90;99.90;;;;;;4987428;28;20175;-85
2022/07/07 08:07:51;;;;;;;2.88;0.82;;;19.00;99.90;;;;;;4972379;28;20043;-83
2022/07/07 08:10:22;;;;;;;3.30;0.75;;;19.20;99.90;;;;;;4973517;28;20039;-83
2022/07/07 08:12:51;;;;;;;1.52;0.80;;;19.70;99.90;;;;;;4980528;28;20039;-83
2022/07/07 08:15:29;;;;;;;3.00;0.80;;;20.00;99.90;;;;;;4983556;28;20484;-84
2022/07/07 08:18:52;;;;;;;2.97;1.00;;;20.20;99.90;;;;;;4973554;28;20039;-85
2022/07/07 08:21:32;;;;;;;3.80;0.95;;;20.50;99.90;;;;;;4974323;28;20626;-85
2022/07/07 08:24:14;;;;;;;2.05;0.90;;;20.60;99.90;;;;;;4974165;28;20059;-86
2022/07/07 08:26:43;;;;;;;3.00;0.82;;;20.00;99.90;;;;;;4974869;28;20042;-85
2022/07/07 08:32:20;;;;;;;2.08;0.98;;;19.50;99.90;;;;;;4985501;28;20118;-85
2022/07/07 08:35:05;;;;;;;1.83;0.70;;;19.10;99.90;;;;;;4958688;28;20034;-89
2022/07/07 08:37:43;;;;;;;2.03;0.70;;;18.90;99.90;;;;;;4966668;28;20508;-85
2022/07/07 08:40:12;;;;;;;1.67;0.77;;;19.00;99.90;;;;;;4974365;28;20039;-85
2022/07/07 08:42:37;;;;;;;1.00;0.70;;;19.20;99.90;;;;;;4978162;28;20039;-83
2022/07/07 08:45:06;;;;;;;2.03;0.70;;;19.30;99.90;;;;;;4975983;28;20043;-85
2022/07/07 08:47:32;;;;;;;2.33;0.95;;;19.40;99.90;;;;;;4971878;28;20081;-85
2022/07/07 08:49:59;;;;;;;1.73;0.80;;;19.40;99.90;;;;;;4974327;28;20078;-84
2022/07/07 08:52:25;;;;;;;2.17;0.90;;;19.60;99.90;;;;;;4972756;28;20039;-85
2022/07/07 08:54:51;;;;;;;4.32;0.95;;;19.90;99.90;;;;;;4955501;28;20054;-85
2022/07/07 08:57:20;;;;;;;3.88;0.60;;;20.10;99.90;;;;;;4974741;28;20034;-86
2022/07/07 08:59:46;;;;;;;2.03;0.85;;;20.30;99.90;;;;;;4959234;28;20458;-85
2022/07/07 09:02:11;;;;;;;1.00;0.47;;;20.30;99.90;;;;;;4990174;28;20034;-84
2022/07/07 09:04:37;;;;;;;2.90;0.50;;;20.20;99.90;;;;;;4971314;28;20419;-86
2022/07/07 09:07:05;;;;;;;1.05;0.65;;;20.10;99.90;;;;;;4973460;28;20042;-85
2022/07/07 09:09:45;;;;;;;3.17;0.68;;;20.20;99.90;;;;;;4974173;28;20125;-84
2022/07/07 09:12:14;;;;;;;1.85;0.70;;;20.20;99.90;;;;;;4974450;28;20031;-85
2022/07/07 09:14:45;;;;;;;2.65;1.00;;;20.40;99.90;;;;;;4977777;28;20042;-84
2022/07/07 09:17:26;;;;;;;2.42;0.90;;;20.50;99.90;;;;;;4958035;28;20042;-84
2022/07/07 09:20:03;;;;;;;2.33;1.05;;;20.60;99.90;;;;;;4962702;28;20047;-84
2022/07/07 09:22:51;;;;;;;4.60;0.80;;;20.40;99.90;;;;;;4956470;28;20169;-86
2022/07/07 09:25:25;;;;;;;2.22;0.82;;;20.20;99.90;;;;;;4965145;28;20092;-83
2022/07/07 09:28:06;;;;;;;2.28;0.90;;;20.10;99.90;;;;;;4968383;28;20046;-83
2022/07/07 09:30:46;;;;;;;3.40;1.30;;;20.00;99.90;;;;;;4955417;28;20093;-86
2022/07/07 09:33:18;;;;;;;6.15;1.52;;;19.90;99.90;;;;;;4972917;28;20106;-83
2022/07/07 09:38:45;;;;;;;2.63;1.10;;;19.80;99.90;;;;;;4967635;28;20118;-86
2022/07/07 09:41:18;;;;;;;2.75;1.00;;;19.60;99.90;;;;;;4955389;28;20038;-84
2022/07/07 09:43:52;;;;;;;3.92;1.20;;;19.30;99.90;;;;;;4972864;28;20042;-86
2022/07/07 09:46:24;;;;;;;4.47;1.05;;;19.00;99.90;;;;;;4972304;28;20046;-83
2022/07/07 09:48:54;;;;;;;5.05;1.58;;;18.70;99.90;;;;;;4967152;28;20039;-84
2022/07/07 09:51:30;;;;;;;3.88;1.38;;;18.60;99.90;;;;;;4968683;28;20051;-84
2022/07/07 09:54:12;;;;;;;4.10;1.23;;;18.60;99.90;;;;;;4986909;28;20038;-85
2022/07/07 09:56:54;;;;;;;3.97;1.20;;;18.80;99.90;;;;;;4971094;28;20421;-87
2022/07/07 10:03:31;;;;;;;6.10;1.48;;;18.90;99.90;;;;;;4967643;28;20049;-87
2022/07/07 10:07:00;;;;;;;;;;;;;;;;;;;;;
2022/07/07 10:09:41;;;;;;;3.72;1.55;;;18.40;99.90;;;;;;5037492;23;20103;-32
2022/07/07 10:12:07;;;;;;;2.50;1.40;;;18.40;99.90;;;;;;5030833;28;20037;-32
2022/07/07 10:14:42;;;;;;;4.55;1.50;;;18.40;99.90;;;;;;5011558;28;20476;-31
2022/07/07 10:17:09;;;;;;;2.08;1.30;;;18.50;99.90;;;;;;5024060;28;20037;-31
2022/07/07 10:19:35;;;;;;;4.32;1.35;;;18.70;99.90;;;;;;5004495;28;20046;-32
2022/07/07 10:22:02;;;;;;;2.83;1.38;;;19.00;99.90;;;;;;5009541;28;20046;-31
2022/07/07 10:24:33;;;;;;;3.67;1.60;;;19.50;99.90;;;;;;5009770;28;20551;-33
2022/07/07 10:27:02;;;;;;;5.05;1.50;;;20.30;99.90;;;;;;5007625;28;20038;-31
2022/07/07 10:29:44;;;;;;;3.72;1.45;;;20.70;99.90;;;;;;5004786;28;20038;-32
2022/07/07 10:32:16;;;;;;;4.55;1.17;;;20.70;99.90;;;;;;5007000;28;20046;-30
2022/07/07 10:34:52;;;;;;;3.15;1.50;;;20.60;99.90;;;;;;5010681;28;20501;-33
2022/07/07 10:37:20;;;;;;;3.28;1.35;;;20.40;99.90;;;;;;5011497;28;20065;-34
2022/07/07 10:39:55;;;;;;;3.58;1.20;;;20.30;99.90;;;;;;4980336;28;20038;-32
2022/07/07 10:42:45;;;;;;;2.60;1.20;;;20.30;99.90;;;;;;5013282;28;20038;-32
2022/07/07 10:45:11;;;;;;;2.13;1.05;;;20.40;99.90;;;;;;5012713;28;20358;-32
2022/07/07 10:47:37;;;;;;;3.80;1.30;;;20.30;99.90;;;;;;5015773;28;20042;-33
2022/07/07 10:50:22;;;;;;;3.38;1.10;;;20.40;99.90;;;;;;5010042;28;20057;-33
2022/07/07 10:52:48;;;;;;;3.00;1.30;;;20.40;99.90;;;;;;5003690;28;20128;-31
2022/07/07 10:55:13;;;;;;;3.53;1.48;;;20.30;99.90;;;;;;5013814;28;20049;-32
2022/07/07 10:57:42;;;;;;;4.30;1.30;;;20.10;99.90;;;;;;5019064;28;20038;-32
2022/07/07 11:00:13;;;;;;;1.88;1.23;;;19.90;99.90;;;;;;5008771;28;20037;-30
2022/07/07 11:02:47;;;;;;;2.15;1.30;;;19.50;99.90;;;;;;5014809;28;20068;-33
2022/07/07 11:05:12;;;;;;;3.58;1.67;;;19.20;99.90;;;;;;5041742;28;20037;-31
2022/07/07 11:07:39;;;;;;;4.78;1.58;;;18.90;99.90;;;;;;5008969;28;20413;-32
2022/07/07 11:10:12;;;;;;;3.83;1.42;;;18.90;99.90;;;;;;5007634;28;20042;-32
2022/07/07 11:12:51;;;;;;;3.80;1.33;;;18.90;99.90;;;;;;4991131;28;20049;-32
2022/07/07 11:15:21;;;;;;;3.67;1.30;;;18.80;99.90;;;;;;5007446;28;20041;-33
2022/07/07 11:18:10;;;;;;;3.40;1.30;;;18.70;99.90;;;;;;5008270;28;20037;-31
2022/07/07 11:20:59;;;;;;;3.28;1.58;;;18.80;99.90;;;;;;5005765;28;20049;-31
2022/07/07 11:23:47;;;;;;;3.85;1.38;;;18.90;99.90;;;;;;5011986;28;20775;-32
2022/07/07 11:26:19;;;;;;;5.40;1.65;;;19.00;99.90;;;;;;5003156;28;20050;-31
2022/07/07 11:28:46;;;;;;;5.22;1.85;;;19.00;99.90;;;;;;5008399;28;20038;-32
2022/07/07 11:31:12;;;;;;;6.78;2.20;;;18.90;99.90;;;;;;5004273;28;20079;-31
2022/07/07 11:33:39;;;;;;;4.88;1.90;;;18.80;99.90;;;;;;5005573;28;20065;-31
2022/07/07 11:36:15;;;;;;;6.43;2.28;;;18.80;99.90;;;;;;5008469;28;20053;-33
2022/07/07 11:38:41;;;;;;;7.60;2.20;;;18.80;99.90;;;;;;5009198;28;20559;-32
2022/07/07 11:41:07;;;;;;;5.93;2.00;;;19.00;99.90;;;;;;5007941;28;20045;-32
2022/07/07 11:43:32;;;;;;;9.63;2.13;;;19.30;99.90;;;;;;5020384;28;20082;-32
2022/07/07 11:46:01;;;;;;;9.40;2.40;;;19.70;99.90;;;;;;5007551;28;20050;-32
2022/07/07 11:48:38;;;;;;;6.10;2.42;;;20.00;99.90;;;;;;5010966;28;20049;-32
2022/07/07 11:51:07;;;;;;;6.07;2.60;;;20.20;99.90;;;;;;5008355;28;20452;-31
2022/07/07 11:53:33;;;;;;;7.55;2.10;;;20.10;99.90;;;;;;5009412;28;20389;-33
2022/07/07 11:56:03;;;;;;;10.43;2.80;;;20.10;99.90;;;;;;4999782;28;20082;-31
2022/07/07 11:58:30;;;;;;;9.27;1.90;;;20.00;99.90;;;;;;5007200;28;20108;-33
2022/07/07 12:00:56;;;;;;;9.05;2.10;;;19.80;99.90;;;;;;5009658;28;20169;-31
2022/07/07 12:03:31;;;;;;;9.75;2.30;;;19.50;99.90;;;;;;4995694;28;20050;-31
2022/07/07 12:05:57;;;;;;;6.85;1.92;;;19.20;99.90;;;;;;5010500;28;20045;-32
2022/07/07 12:08:33;;;;;;;7.25;2.40;;;19.00;99.90;;;;;;5009554;28;20412;-31
2022/07/07 12:10:59;;;;;;;8.40;2.35;;;19.10;99.90;;;;;;5000919;28;20042;-32
2022/07/07 12:13:26;;;;;;;7.32;2.70;;;19.20;99.90;;;;;;5008462;28;20092;-32
2022/07/07 12:15:53;;;;;;;9.85;3.05;;;19.50;99.90;;;;;;5006702;28;20112;-30
2022/07/07 12:18:39;;;;;;;11.88;2.97;;;19.60;99.90;;;;;;5012799;28;20408;-33
2022/07/07 12:21:08;;;;;;;8.50;2.40;;;19.50;99.90;;;;;;5013896;28;20037;-30
2022/07/07 12:23:45;;;;;;;11.75;2.83;;;19.30;99.90;;;;;;5011737;28;20137;-32
2022/07/07 12:26:20;;;;;;;9.77;2.47;;;19.30;99.90;;;;;;5013224;28;20042;-33
2022/07/07 12:28:49;;;;;;;9.88;2.97;;;19.20;99.90;;;;;;5011547;28;20038;-31
2022/07/07 12:31:17;;;;;;;12.30;2.40;;;19.40;99.90;;;;;;5019375;28;20532;-33
2022/07/07 12:33:43;;;;;;;14.82;2.92;;;19.50;99.90;;;;;;5001471;28;20124;-30
2022/07/07 12:36:23;;;;;;;9.35;2.83;;;19.80;99.90;;;;;;5011914;28;20568;-31
2022/07/07 12:38:58;;;;;;;9.77;2.85;;;20.00;99.90;;;;;;5006620;28;20027;-33
2022/07/07 12:41:27;;;;;;;10.82;2.50;;;20.00;99.90;;;;;;5011252;28;20054;-32
2022/07/07 12:43:57;;;;;;;7.80;2.25;;;19.90;99.90;;;;;;5022616;28;20050;-31
2022/07/07 12:46:33;;;;;;;6.32;2.08;;;19.80;99.90;;;;;;5008902;28;20505;-32
2022/07/07 12:49:00;;;;;;;8.90;2.78;;;19.70;99.90;;;;;;5018114;28;20353;-32
2022/07/07 12:51:28;;;;;;;9.13;2.30;;;19.60;99.90;;;;;;5014302;28;20030;-28
2022/07/07 12:53:54;;;;;;;7.53;2.30;;;19.50;99.90;;;;;;5014045;28;20049;-28
2022/07/07 12:56:21;;;;;;;7.93;2.17;;;19.40;99.90;;;;;;5014087;28;20501;-28
2022/07/07 12:58:55;;;;;;;7.05;2.10;;;19.50;99.90;;;;;;5012344;28;20085;-29
2022/07/07 13:01:23;;;;;;;7.82;2.20;;;19.60;99.90;;;;;;4994646;28;20049;-29
2022/07/07 13:03:54;;;;;;;7.70;2.20;;;19.60;99.90;;;;;;5002430;28;20045;-28
2022/07/07 13:06:24;;;;;;;8.82;2.53;;;19.70;99.90;;;;;;5013788;28;20164;-28
2022/07/07 13:08:51;;;;;;;5.63;2.13;;;19.80;99.90;;;;;;5013554;28;20232;-29